George S. — A8TJ9 — position and weather

sailwx.info

Track history (hours):
 
Tides and Currents Weather Stations Pressure Air Temp Water Temp Dewpoint Dewpoint Depression Visibility Wind Speed Wind Dir Waves Ship Positions

George S.

Last reported at 2014-Oct-30 13:14 UTC. Time now 2014-Dec-21 20:51 UTC.
Position S 29°47' E 031°42'.
Warning: this ship's position is 52 days out of date.

Length 274 m; draft 17 m.

Type: Ship. MMSI: 636014372.

Date/timePositionNaut miles runAvg speedWind from/ knotsBaromVisibWave heightAir tempDewpointWater temp
2014-Oct-30 13:14S 29°47' E 031°42'6 9.4
2014-Oct-30 12:33S 29°48' E 031°35'1211.5
2014-Oct-30 11:33S 29°51' E 031°22'9 8.2
2014-Oct-30 10:28S 29°54' E 031°13'1 0.6
2014-Oct-30 09:33S 29°54' E 031°13'1 0.8
2014-Oct-30 08:33S 29°53' E 031°13'2 2.4
2014-Oct-30 07:33S 29°51' E 031°11'8 7.7
2014-Oct-30 06:33S 29°59' E 031°12'1111.1
2014-Oct-30 05:33S 30°10' E 031°12'10 8.2
2014-Oct-30 04:24S 30°20' E 031°12'3 3.4
2014-Oct-30 03:33S 30°17' E 031°14'4 3.6
2014-Oct-30 02:33S 30°14' E 031°17'3 3.3
2014-Oct-30 01:33S 30°11' E 031°18'3 3.1
2014-Oct-30 00:33S 30°08' E 031°19'3 3.4
2014-Oct-29 23:33S 30°05' E 031°20'3 2.9
2014-Oct-29 22:29S 30°02' E 031°20'3 2.7
2014-Oct-29 21:29S 29°59' E 031°20'3 2.6
2014-Oct-29 20:29S 29°56' E 031°20'3 2.7
2014-Oct-29 19:29S 29°54' E 031°21'2 2.5
2014-Oct-29 18:33S 29°52' E 031°22'1 1.2
2014-Oct-29 17:34S 29°52' E 031°20'9 8.6
2014-Oct-29 16:34S 29°55' E 031°11'2 1.8
2014-Oct-29 15:34S 29°54' E 031°11'2 1.7
2014-Oct-29 14:34S 29°52' E 031°11'1 0.9
2014-Oct-29 13:34S 29°51' E 031°11'2 1.7
2014-Oct-29 12:33S 29°51' E 031°09'2 1.6
2014-Oct-29 11:34S 29°50' E 031°09'0 0.1
2014-Oct-29 10:34S 29°50' E 031°09'1 1.2
2014-Oct-29 09:34S 29°50' E 031°10'1 0.6
2014-Oct-29 08:34S 29°51' E 031°10'1 1.2
2014-Oct-29 07:34S 29°51' E 031°12'1 0.5
2014-Oct-29 06:34S 29°51' E 031°12'4 3.9
2014-Oct-29 05:34S 29°54' E 031°10'1211.8
2014-Oct-29 04:34S 30°06' E 031°11'6 5.7
2014-Oct-29 03:32S 30°12' E 031°10'1 1.4
2014-Oct-29 02:32S 30°11' E 031°11'2 1.5
2014-Oct-29 01:32S 30°10' E 031°13'2 2.1
2014-Oct-29 00:32S 30°09' E 031°15'2 2.4
2014-Oct-28 23:32S 30°07' E 031°16'2 2.1
2014-Oct-28 22:32S 30°05' E 031°17'2 2.2
2014-Oct-28 21:32S 30°03' E 031°17'2 2.2
2014-Oct-28 20:32S 30°01' E 031°17'2 2.0
2014-Oct-28 19:28S 29°58' E 031°17'3 2.9
2014-Oct-28 18:33S 29°56' E 031°16'3 3.0
2014-Oct-28 17:33S 29°53' E 031°16'3 2.7
2014-Oct-28 16:30S 29°50' E 031°17'2 1.9
2014-Oct-28 15:33S 29°50' E 031°15'6 6.0
2014-Oct-28 14:33S 29°53' E 031°09'1 1.1
2014-Oct-28 13:33S 29°52' E 031°09'1 0.6
2014-Oct-28 12:33S 29°51' E 031°09'4 4.3
2014-Oct-28 11:33S 29°55' E 031°11'1 0.7
2014-Oct-28 10:33S 29°55' E 031°10'1 1.3
2014-Oct-28 09:33S 29°53' E 031°10'1 1.3
2014-Oct-28 08:33S 29°52' E 031°11'1 0.7
2014-Oct-28 07:33S 29°52' E 031°10'1110.7
2014-Oct-28 06:33S 30°03' E 031°13'1110.6
2014-Oct-28 05:33S 30°13' E 031°13'  
Track history (hours):
 
Tides and Currents Weather Stations Pressure Air Temp Water Temp Dewpoint Dewpoint Depression Visibility Wind Speed Wind Dir Waves Ship Positions

George S.

Last reported at 2014-Oct-30 13:14 UTC. Time now 2014-Dec-21 20:51 UTC.
Position S 29°47' E 031°42'.
Warning: this ship's position is 52 days out of date.

Length 274 m; draft 17 m.

Type: Ship. MMSI: 636014372.

Date/timePositionNaut miles runAvg speedWind from/ knotsBaromVisibWave heightAir tempDewpointWater temp
2014-Oct-30 13:14S 29°47' E 031°42'6 9.4
2014-Oct-30 12:33S 29°48' E 031°35'1211.5
2014-Oct-30 11:33S 29°51' E 031°22'9 8.2
2014-Oct-30 10:28S 29°54' E 031°13'1 0.6
2014-Oct-30 09:33S 29°54' E 031°13'1 0.8
2014-Oct-30 08:33S 29°53' E 031°13'2 2.4
2014-Oct-30 07:33S 29°51' E 031°11'8 7.7
2014-Oct-30 06:33S 29°59' E 031°12'1111.1
2014-Oct-30 05:33S 30°10' E 031°12'10 8.2
2014-Oct-30 04:24S 30°20' E 031°12'3 3.4
2014-Oct-30 03:33S 30°17' E 031°14'4 3.6
2014-Oct-30 02:33S 30°14' E 031°17'3 3.3
2014-Oct-30 01:33S 30°11' E 031°18'3 3.1
2014-Oct-30 00:33S 30°08' E 031°19'3 3.4
2014-Oct-29 23:33S 30°05' E 031°20'3 2.9
2014-Oct-29 22:29S 30°02' E 031°20'3 2.7
2014-Oct-29 21:29S 29°59' E 031°20'3 2.6
2014-Oct-29 20:29S 29°56' E 031°20'3 2.7
2014-Oct-29 19:29S 29°54' E 031°21'2 2.5
2014-Oct-29 18:33S 29°52' E 031°22'1 1.2
2014-Oct-29 17:34S 29°52' E 031°20'9 8.6
2014-Oct-29 16:34S 29°55' E 031°11'2 1.8
2014-Oct-29 15:34S 29°54' E 031°11'2 1.7
2014-Oct-29 14:34S 29°52' E 031°11'1 0.9
2014-Oct-29 13:34S 29°51' E 031°11'2 1.7
2014-Oct-29 12:33S 29°51' E 031°09'2 1.6
2014-Oct-29 11:34S 29°50' E 031°09'0 0.1
2014-Oct-29 10:34S 29°50' E 031°09'1 1.2
2014-Oct-29 09:34S 29°50' E 031°10'1 0.6
2014-Oct-29 08:34S 29°51' E 031°10'1 1.2
2014-Oct-29 07:34S 29°51' E 031°12'1 0.5
2014-Oct-29 06:34S 29°51' E 031°12'4 3.9
2014-Oct-29 05:34S 29°54' E 031°10'1211.8
2014-Oct-29 04:34S 30°06' E 031°11'6 5.7
2014-Oct-29 03:32S 30°12' E 031°10'1 1.4
2014-Oct-29 02:32S 30°11' E 031°11'2 1.5
2014-Oct-29 01:32S 30°10' E 031°13'2 2.1
2014-Oct-29 00:32S 30°09' E 031°15'2 2.4
2014-Oct-28 23:32S 30°07' E 031°16'2 2.1
2014-Oct-28 22:32S 30°05' E 031°17'2 2.2
2014-Oct-28 21:32S 30°03' E 031°17'2 2.2
2014-Oct-28 20:32S 30°01' E 031°17'2 2.0
2014-Oct-28 19:28S 29°58' E 031°17'3 2.9
2014-Oct-28 18:33S 29°56' E 031°16'3 3.0
2014-Oct-28 17:33S 29°53' E 031°16'3 2.7
2014-Oct-28 16:30S 29°50' E 031°17'2 1.9
2014-Oct-28 15:33S 29°50' E 031°15'6 6.0
2014-Oct-28 14:33S 29°53' E 031°09'1 1.1
2014-Oct-28 13:33S 29°52' E 031°09'1 0.6
2014-Oct-28 12:33S 29°51' E 031°09'4 4.3
2014-Oct-28 11:33S 29°55' E 031°11'1 0.7
2014-Oct-28 10:33S 29°55' E 031°10'1 1.3
2014-Oct-28 09:33S 29°53' E 031°10'1 1.3
2014-Oct-28 08:33S 29°52' E 031°11'1 0.7
2014-Oct-28 07:33S 29°52' E 031°10'1110.7
2014-Oct-28 06:33S 30°03' E 031°13'1110.6
2014-Oct-28 05:33S 30°13' E 031°13'  

Dump ship's entire track history